createdAt,value
2023-05-22T00:02:08.108Z,101085.81
2023-05-22T00:04:54.725Z,101077.88
2023-05-22T00:07:41.878Z,101077.34
2023-05-22T00:10:28.035Z,101072.72
2023-05-22T00:13:13.937Z,101071.84
2023-05-22T00:15:59.764Z,101065.47
2023-05-22T00:18:47.506Z,101074.13
2023-05-22T00:21:34.912Z,101075.59
2023-05-22T00:24:21.634Z,101070.88
2023-05-22T00:27:07.529Z,101071.69
2023-05-22T00:29:53.416Z,101068.97
2023-05-22T00:32:39.941Z,101066.44
2023-05-22T00:35:27.405Z,101063.06
2023-05-22T00:38:29.181Z,101068.06
2023-05-22T00:41:15.281Z,101064.13
2023-05-22T00:44:01.292Z,101062.94
2023-05-22T00:46:47.496Z,101061.88
2023-05-22T00:49:34.043Z,101058.69
2023-05-22T00:52:22.113Z,101050.84
2023-05-22T00:55:09.741Z,101055.69
2023-05-22T00:57:56.100Z,101045.13
2023-05-22T01:00:43.045Z,101053.78
2023-05-22T01:03:29.907Z,101048.59
2023-05-22T01:06:17.881Z,101046.59
2023-05-22T01:09:06.438Z,101041.34
2023-05-22T01:11:56.944Z,101036.97
2023-05-22T01:14:48.453Z,101036.03
2023-05-22T01:17:41.061Z,101035.88
2023-05-22T01:20:32.141Z,101034.09
2023-05-22T01:23:41.963Z,101038.31
2023-05-22T01:27:00.681Z,101032.22
2023-05-22T01:29:49.328Z,101034.78
2023-05-22T01:32:38.270Z,101035.88
2023-05-22T01:35:25.204Z,101032.84
2023-05-22T01:38:11.898Z,101041.59
2023-05-22T01:40:58.097Z,101045.09
2023-05-22T01:43:46.790Z,101035.66
2023-05-22T01:46:33.671Z,101041.06
2023-05-22T01:49:21.115Z,101042.13
2023-05-22T01:52:13.230Z,101042.78
2023-05-22T01:55:03.638Z,101033.56
2023-05-22T01:57:53.875Z,101032.53
2023-05-22T02:00:41.530Z,101028.91
2023-05-22T02:03:31.373Z,101027.38
2023-05-22T02:06:19.858Z,101019.94
2023-05-22T02:09:06.361Z,101013.59
2023-05-22T02:11:53.119Z,101019.25
2023-05-22T02:14:39.176Z,101014.09
2023-05-22T02:17:25.999Z,101003.28
2023-05-22T02:20:14.359Z,101005.09
2023-05-22T02:23:03.842Z,101002.03
2023-05-22T02:25:49.719Z,101011.13
2023-05-22T02:28:35.900Z,101012.69
2023-05-22T02:31:21.817Z,101007.34
2023-05-22T02:34:08.222Z,101005.75
2023-05-22T02:36:54.225Z,101007.53
2023-05-22T02:39:41.762Z,101000.78
2023-05-22T02:42:27.648Z,100999.59
2023-05-22T02:45:13.925Z,101001.41
2023-05-22T02:48:02.074Z,101002.91
2023-05-22T02:50:48.732Z,101002.47
2023-05-22T02:53:35.353Z,100997.50
2023-05-22T02:56:24.004Z,101002.78
2023-05-22T02:59:10.134Z,100998.81
2023-05-22T03:01:56.138Z,100993.72
2023-05-22T03:04:43.191Z,101002.00
2023-05-22T03:07:29.978Z,100997.06
2023-05-22T03:10:16.699Z,100996.31
2023-05-22T03:13:03.966Z,100996.44
2023-05-22T03:15:50.064Z,100995.06
2023-05-22T03:18:37.201Z,100997.28
2023-05-22T03:21:23.240Z,100998.34
2023-05-22T03:24:09.891Z,100995.50
2023-05-22T03:26:55.956Z,101000.47
2023-05-22T03:29:55.375Z,100999.41
2023-05-22T03:32:42.471Z,100999.63
2023-05-22T03:35:28.828Z,100995.97
2023-05-22T03:38:15.430Z,100994.66
2023-05-22T03:41:01.710Z,100990.06
2023-05-22T03:43:48.123Z,100989.81
2023-05-22T03:46:35.800Z,100986.66
2023-05-22T03:49:21.784Z,100988.31
2023-05-22T03:52:10.300Z,100982.72
2023-05-22T03:54:57.002Z,100982.72
2023-05-22T03:57:42.911Z,100986.50
2023-05-22T04:00:28.742Z,100981.19
2023-05-22T04:03:19.764Z,100992.88
2023-05-22T04:06:07.402Z,100990.41
2023-05-22T04:08:53.587Z,100990.03
2023-05-22T04:11:40.512Z,100986.97
2023-05-22T04:14:26.746Z,100988.03
2023-05-22T04:17:13.005Z,100992.78
2023-05-22T04:20:00.389Z,100988.59
2023-05-22T04:22:48.769Z,100986.25
2023-05-22T04:25:36.348Z,100993.44
2023-05-22T04:28:23.088Z,100984.84
2023-05-22T04:31:09.129Z,100998.19
2023-05-22T04:33:56.024Z,100988.50
2023-05-22T04:36:44.920Z,100987.03
2023-05-22T04:39:31.164Z,100994.31
2023-05-22T04:42:17.598Z,100990.72
2023-05-22T04:45:03.465Z,100986.41
2023-05-22T04:47:49.425Z,100985.97
2023-05-22T04:50:35.989Z,100986.09
2023-05-22T04:53:23.674Z,100990.44
2023-05-22T04:56:09.796Z,100985.59
2023-05-22T04:58:56.320Z,100987.13
2023-05-22T05:01:45.326Z,100981.22
2023-05-22T05:04:31.773Z,100982.97
2023-05-22T05:07:17.601Z,100985.13
2023-05-22T05:10:06.162Z,100979.78
2023-05-22T05:12:52.626Z,100974.94
2023-05-22T05:15:39.247Z,100983.91
2023-05-22T05:18:25.526Z,100965.38
2023-05-22T05:21:11.464Z,100967.59
2023-05-22T05:23:57.907Z,100975.03
2023-05-22T05:26:45.970Z,100970.06
2023-05-22T05:29:32.166Z,100971.34
2023-05-22T05:32:42.877Z,100975.06
2023-05-22T05:35:45.798Z,100969.84
2023-05-22T05:38:33.046Z,100968.84
2023-05-22T05:41:19.088Z,100969.16
2023-05-22T05:44:08.853Z,100972.69
2023-05-22T05:46:55.380Z,100973.63
2023-05-22T05:49:42.019Z,100972.59
2023-05-22T05:52:32.419Z,100966.03
2023-05-22T05:55:20.222Z,100970.75
2023-05-22T05:58:07.700Z,100972.16
2023-05-22T06:01:04.114Z,100974.00
2023-05-22T06:03:50.612Z,100979.34
2023-05-22T06:06:44.521Z,100980.06
2023-05-22T06:09:30.343Z,100975.41
2023-05-22T06:12:28.377Z,100981.66
2023-05-22T06:15:14.462Z,100981.97
2023-05-22T06:18:03.250Z,100979.78
2023-05-22T06:20:49.460Z,100981.56
2023-05-22T06:23:35.797Z,100982.03
2023-05-22T06:26:23.397Z,100986.28
2023-05-22T06:29:10.782Z,100986.47
2023-05-22T06:31:57.526Z,100989.41
2023-05-22T06:34:48.341Z,100985.22
2023-05-22T06:37:36.730Z,100990.19
2023-05-22T06:40:24.144Z,100992.88
2023-05-22T06:43:13.954Z,100995.03
2023-05-22T06:46:10.572Z,100994.53
2023-05-22T06:49:08.867Z,100994.78
2023-05-22T06:52:06.170Z,100990.22
2023-05-22T06:54:54.113Z,100995.81
2023-05-22T06:57:41.225Z,100995.88
2023-05-22T07:00:27.170Z,101000.75
2023-05-22T07:03:24.895Z,100992.78
2023-05-22T07:06:48.499Z,100997.06
2023-05-22T07:09:35.922Z,100996.66
2023-05-22T07:12:26.123Z,100996.22
2023-05-22T07:15:14.432Z,100997.69
2023-05-22T07:18:06.354Z,100995.84
2023-05-22T07:20:52.933Z,100994.69
2023-05-22T07:23:41.906Z,100997.31
2023-05-22T07:26:29.965Z,100989.28
2023-05-22T07:29:23.514Z,100995.09
2023-05-22T07:32:12.418Z,100994.94
2023-05-22T07:34:58.386Z,100986.16
2023-05-22T07:37:44.963Z,100990.53
2023-05-22T07:40:31.217Z,100980.03
2023-05-22T07:43:18.687Z,100987.28
2023-05-22T07:46:06.093Z,100979.31
2023-05-22T07:48:58.203Z,100978.72
2023-05-22T07:51:44.380Z,100978.22
2023-05-22T07:54:30.885Z,100975.72
2023-05-22T07:57:18.094Z,100979.38
2023-05-22T08:00:14.293Z,100982.94
2023-05-22T08:03:00.710Z,100984.97
2023-05-22T08:05:47.380Z,100982.19
2023-05-22T08:08:34.530Z,100985.81
2023-05-22T08:11:21.192Z,100984.84
2023-05-22T08:14:07.690Z,100985.75
2023-05-22T08:16:56.943Z,100972.41
2023-05-22T08:19:43.355Z,100976.78
2023-05-22T08:22:30.940Z,100973.78
2023-05-22T08:25:17.211Z,100969.47
2023-05-22T08:28:03.647Z,100962.63
2023-05-22T08:30:51.237Z,100968.75
2023-05-22T08:33:39.731Z,100969.72
2023-05-22T08:36:27.676Z,100960.50
2023-05-22T08:39:14.420Z,100958.44
2023-05-22T08:42:00.607Z,100954.25
2023-05-22T08:44:48.807Z,100950.19
2023-05-22T08:47:36.755Z,100952.13
2023-05-22T08:50:26.027Z,100946.38
2023-05-22T08:53:14.341Z,100942.41
2023-05-22T08:56:00.793Z,100941.97
2023-05-22T08:58:47.673Z,100943.31
2023-05-22T09:01:33.990Z,100942.16
2023-05-22T09:04:23.570Z,100943.59
2023-05-22T09:07:11.170Z,100941.88
2023-05-22T09:09:57.477Z,100937.72
2023-05-22T09:13:01.374Z,100932.84
2023-05-22T09:15:47.660Z,100928.72
2023-05-22T09:18:34.009Z,100933.59
2023-05-22T09:21:29.403Z,100930.09
2023-05-22T09:24:17.781Z,100927.91
2023-05-22T09:27:05.090Z,100922.63
2023-05-22T09:29:52.527Z,100926.59
2023-05-22T09:32:39.263Z,100936.34
2023-05-22T09:35:27.702Z,100927.03
2023-05-22T09:38:14.499Z,100929.94
2023-05-22T09:41:02.425Z,100927.31
2023-05-22T09:43:51.270Z,100922.41
2023-05-22T09:46:41.604Z,100929.28
2023-05-22T09:49:28.160Z,100924.69
2023-05-22T09:52:15.075Z,100924.81
2023-05-22T09:55:04.672Z,100924.91
2023-05-22T09:57:53.226Z,100927.47
2023-05-22T10:00:39.778Z,100923.78
2023-05-22T10:03:27.803Z,100925.84
2023-05-22T10:06:16.036Z,100925.47
2023-05-22T10:09:05.708Z,100924.50
2023-05-22T10:11:54.688Z,100925.69
2023-05-22T10:14:41.941Z,100914.53
2023-05-22T10:17:28.631Z,100914.00
2023-05-22T10:20:15.942Z,100907.72
2023-05-22T10:23:03.858Z,100913.59
2023-05-22T10:25:50.654Z,100905.91
2023-05-22T10:28:39.679Z,100907.13
2023-05-22T10:31:30.854Z,100900.56
2023-05-22T10:34:50.933Z,100894.81
2023-05-22T10:37:43.917Z,100897.13
2023-05-22T10:40:31.354Z,100899.28
2023-05-22T10:43:17.260Z,100894.09
2023-05-22T10:46:04.894Z,100892.44
2023-05-22T10:48:56.277Z,100879.72
2023-05-22T10:51:44.609Z,100880.53
2023-05-22T10:54:41.882Z,100882.25
2023-05-22T10:57:28.677Z,100875.16
2023-05-22T11:00:18.732Z,100872.69
2023-05-22T11:03:17.943Z,100868.72
2023-05-22T11:06:07.757Z,100872.59
2023-05-22T11:08:56.824Z,100862.16
2023-05-22T11:11:43.245Z,100862.78
2023-05-22T11:14:30.259Z,100870.34
2023-05-22T11:17:18.804Z,100867.13
2023-05-22T11:20:08.022Z,100863.03
2023-05-22T11:23:00.149Z,100858.00
2023-05-22T11:25:46.657Z,100860.31
2023-05-22T11:28:33.319Z,100861.16
2023-05-22T11:31:20.665Z,100840.59
2023-05-22T11:34:07.166Z,100850.97
2023-05-22T11:36:53.756Z,100841.06
2023-05-22T11:39:41.335Z,100843.59
2023-05-22T11:42:27.538Z,100850.13
2023-05-22T11:45:13.748Z,100854.22
2023-05-22T11:48:00.140Z,100848.56
2023-05-22T11:50:46.445Z,100848.34
2023-05-22T11:53:33.057Z,100845.00
2023-05-22T11:56:23.194Z,100852.88
2023-05-22T11:59:09.053Z,100844.59
2023-05-22T12:01:55.261Z,100842.31
2023-05-22T12:04:41.873Z,100832.50
2023-05-22T12:07:28.600Z,100825.97
2023-05-22T12:10:15.114Z,100827.13
2023-05-22T12:13:02.661Z,100831.50
2023-05-22T12:15:48.503Z,100832.56
2023-05-22T12:18:37.357Z,100834.34
2023-05-22T12:21:23.896Z,100828.13
2023-05-22T12:24:09.861Z,100827.25
2023-05-22T12:26:56.657Z,100827.88
2023-05-22T12:29:44.249Z,100822.84
2023-05-22T12:32:30.421Z,100821.81
2023-05-22T12:35:17.253Z,100819.06
2023-05-22T12:38:03.693Z,100824.13
2023-05-22T12:40:50.669Z,100821.84
2023-05-22T12:43:37.296Z,100824.84
2023-05-22T12:46:25.125Z,100831.13
2023-05-22T12:49:11.894Z,100822.50
2023-05-22T12:51:57.894Z,100820.56
2023-05-22T12:54:44.787Z,100810.03
2023-05-22T12:57:30.981Z,100815.66
2023-05-22T13:00:17.830Z,100816.66
2023-05-22T13:03:06.375Z,100818.25
2023-05-22T13:05:52.697Z,100817.72
2023-05-22T13:08:39.114Z,100819.91
2023-05-22T13:11:26.544Z,100806.81
2023-05-22T13:14:13.068Z,100811.19
2023-05-22T13:16:59.098Z,100806.34
2023-05-22T13:19:46.355Z,100798.34
2023-05-22T13:22:32.583Z,100807.22
2023-05-22T13:25:19.737Z,100797.72
2023-05-22T13:28:05.903Z,100793.91
2023-05-22T13:30:52.370Z,100801.06
2023-05-22T13:33:38.354Z,100788.47
2023-05-22T13:36:26.071Z,100782.56
2023-05-22T13:39:12.251Z,100787.75
2023-05-22T13:41:58.263Z,100776.22
2023-05-22T13:44:44.562Z,100776.59
2023-05-22T13:47:30.973Z,100769.00
2023-05-22T13:50:17.185Z,100771.75
2023-05-22T13:53:04.844Z,100756.63
2023-05-22T13:55:51.003Z,100758.50
2023-05-22T13:58:37.303Z,100757.75
2023-05-22T14:01:24.006Z,100740.09
2023-05-22T14:04:10.443Z,100748.88
2023-05-22T14:06:56.387Z,100744.09
2023-05-22T14:09:43.763Z,100743.69
2023-05-22T14:12:29.831Z,100745.41
2023-05-22T14:15:17.399Z,100743.38
2023-05-22T14:18:04.729Z,100744.34
2023-05-22T14:20:50.957Z,100731.69
2023-05-22T14:23:36.750Z,100732.94
2023-05-22T14:26:24.830Z,100726.75
2023-05-22T14:29:11.558Z,100722.94
2023-05-22T14:32:04.008Z,100724.06
2023-05-22T14:34:50.298Z,100729.31
2023-05-22T14:37:38.217Z,100729.44
2023-05-22T14:40:24.286Z,100716.13
2023-05-22T14:43:12.136Z,100713.78
2023-05-22T14:45:59.212Z,100716.88
2023-05-22T14:48:45.692Z,100724.88
2023-05-22T14:51:31.582Z,100725.50
2023-05-22T14:54:19.135Z,100720.56
2023-05-22T14:57:05.860Z,100713.63
2023-05-22T14:59:53.353Z,100718.09
2023-05-22T15:02:39.366Z,100716.78
2023-05-22T15:05:26.606Z,100703.41
2023-05-22T15:08:12.699Z,100703.88
2023-05-22T15:10:58.511Z,100696.06
2023-05-22T15:13:44.760Z,100691.25
2023-05-22T15:16:32.033Z,100682.19
2023-05-22T15:19:18.664Z,100685.25
2023-05-22T15:22:18.262Z,100681.91
2023-05-22T15:25:07.239Z,100692.03
2023-05-22T15:27:53.737Z,100695.78
2023-05-22T15:30:41.793Z,100705.53
2023-05-22T15:33:29.235Z,100714.81
2023-05-22T15:36:15.063Z,100716.88
2023-05-22T15:39:01.050Z,100727.53
2023-05-22T15:41:58.290Z,100733.94
2023-05-22T15:44:52.159Z,100731.69
2023-05-22T15:47:38.560Z,100740.44
2023-05-22T15:50:26.436Z,100751.13
2023-05-22T15:53:12.672Z,100751.81
2023-05-22T15:55:58.711Z,100743.94
2023-05-22T15:58:44.825Z,100748.22
2023-05-22T16:01:31.100Z,100758.63
2023-05-22T16:04:17.444Z,100761.75
2023-05-22T16:07:05.729Z,100772.53
2023-05-22T16:09:52.009Z,100769.25
2023-05-22T16:12:40.479Z,100766.53
2023-05-22T16:15:26.577Z,100764.34
2023-05-22T16:18:12.828Z,100764.91
2023-05-22T16:20:59.261Z,100764.31
2023-05-22T16:23:46.620Z,100765.69
2023-05-22T16:26:32.826Z,100774.75
2023-05-22T16:29:20.595Z,100772.53
2023-05-22T16:32:08.245Z,100780.22
2023-05-22T16:34:54.288Z,100776.34
2023-05-22T16:37:40.673Z,100774.72
2023-05-22T16:40:28.137Z,100776.09
2023-05-22T16:43:14.803Z,100774.19
2023-05-22T16:46:00.997Z,100779.91
2023-05-22T16:48:47.044Z,100783.78
2023-05-22T16:51:32.894Z,100787.88
2023-05-22T16:54:19.084Z,100775.81
2023-05-22T16:57:07.498Z,100775.53
2023-05-22T16:59:54.902Z,100783.50
2023-05-22T17:02:42.872Z,100780.22
2023-05-22T17:05:29.194Z,100771.72
2023-05-22T17:08:15.364Z,100778.28
2023-05-22T17:11:01.300Z,100771.41
2023-05-22T17:13:48.412Z,100764.34
2023-05-22T17:16:34.311Z,100756.94
2023-05-22T17:19:20.942Z,100769.25
2023-05-22T17:22:07.281Z,100771.41
2023-05-22T17:24:53.126Z,100775.56
2023-05-22T17:27:39.410Z,100767.06
2023-05-22T17:30:26.851Z,100772.22
2023-05-22T17:33:13.843Z,100768.63
2023-05-22T17:36:00.522Z,100763.38
2023-05-22T17:38:46.678Z,100752.16
2023-05-22T17:41:32.555Z,100761.47
2023-05-22T17:44:18.628Z,100755.97
2023-05-22T17:47:06.588Z,100758.66
2023-05-22T17:49:52.392Z,100764.13
2023-05-22T17:52:38.416Z,100774.13
2023-05-22T17:55:24.516Z,100785.50
2023-05-22T17:58:10.849Z,100794.53
2023-05-22T18:00:56.793Z,100795.63
2023-05-22T18:03:44.582Z,100789.44
2023-05-22T18:06:30.945Z,100779.75
2023-05-22T18:09:17.189Z,100782.88
2023-05-22T18:12:03.642Z,100787.53
2023-05-22T18:14:50.010Z,100800.00
2023-05-22T18:17:36.218Z,100806.25
2023-05-22T18:20:24.134Z,100821.84
2023-05-22T18:23:10.355Z,100812.25
2023-05-22T18:25:57.189Z,100820.13
2023-05-22T18:28:43.411Z,100821.44
2023-05-22T18:31:33.534Z,100823.44
2023-05-22T18:34:19.931Z,100821.72
2023-05-22T18:37:07.322Z,100827.44
2023-05-22T18:39:53.517Z,100825.50
2023-05-22T18:42:40.017Z,100843.47
2023-05-22T18:45:26.212Z,100855.25
2023-05-22T18:48:12.166Z,100866.44
2023-05-22T18:50:58.777Z,100873.22
2023-05-22T18:53:46.935Z,100881.72
2023-05-22T18:56:32.778Z,100886.88
2023-05-22T18:59:18.821Z,100891.31
2023-05-22T19:02:05.126Z,100897.50
2023-05-22T19:04:51.760Z,100911.44
2023-05-22T19:07:37.825Z,100918.94
2023-05-22T19:10:25.700Z,100925.50
2023-05-22T19:13:11.971Z,100935.78
2023-05-22T19:15:58.130Z,100935.78
2023-05-22T19:18:44.248Z,100945.31
2023-05-22T19:21:30.985Z,100947.53
2023-05-22T19:24:17.536Z,100953.63
2023-05-22T19:27:05.088Z,100970.25
2023-05-22T19:29:51.158Z,100965.03
2023-05-22T19:32:37.916Z,100973.13
2023-05-22T19:35:24.084Z,100985.44
2023-05-22T19:38:10.167Z,100982.41
2023-05-22T19:40:56.584Z,100989.97
2023-05-22T19:43:44.386Z,100984.97
2023-05-22T19:46:30.585Z,100977.31
2023-05-22T19:49:17.125Z,100981.69
2023-05-22T19:52:03.293Z,100990.34
2023-05-22T19:54:49.498Z,100987.88
2023-05-22T19:57:36.029Z,100989.03
2023-05-22T20:00:28.238Z,100983.75
2023-05-22T20:03:14.285Z,100986.81
2023-05-22T20:06:00.814Z,100987.50
2023-05-22T20:08:47.324Z,100990.69
2023-05-22T20:11:33.461Z,100983.34
2023-05-22T20:14:19.480Z,100986.25
2023-05-22T20:17:07.970Z,100986.66
2023-05-22T20:19:54.256Z,100984.25
2023-05-22T20:22:40.226Z,100979.66
2023-05-22T20:25:26.288Z,100976.47
2023-05-22T20:28:12.142Z,100973.06
2023-05-22T20:30:58.131Z,100966.06
2023-05-22T20:33:45.508Z,100974.91
2023-05-22T20:36:32.363Z,100973.66
2023-05-22T20:39:18.943Z,100981.91
2023-05-22T20:42:06.356Z,100967.88
2023-05-22T20:44:53.091Z,100962.09
2023-05-22T20:47:40.222Z,100961.34
2023-05-22T20:50:28.060Z,100966.53
2023-05-22T20:53:14.266Z,100968.19
2023-05-22T20:56:00.194Z,100977.03
2023-05-22T20:58:46.372Z,100972.34
2023-05-22T21:01:32.439Z,100978.50
2023-05-22T21:04:19.020Z,100986.50
2023-05-22T21:07:06.837Z,100989.41
2023-05-22T21:09:52.798Z,100988.41
2023-05-22T21:12:38.877Z,100981.91
2023-05-22T21:15:24.923Z,100975.44
2023-05-22T21:18:11.858Z,100972.09
2023-05-22T21:20:58.160Z,100967.72
2023-05-22T21:23:45.899Z,100962.59
2023-05-22T21:26:31.717Z,100948.72
2023-05-22T21:29:18.265Z,100951.81
2023-05-22T21:32:04.313Z,100949.56
2023-05-22T21:34:50.546Z,100943.56
2023-05-22T21:37:36.664Z,100941.41
2023-05-22T21:40:24.631Z,100944.13
2023-05-22T21:43:10.951Z,100945.59
2023-05-22T21:45:57.157Z,100943.34
2023-05-22T21:48:43.203Z,100940.22
2023-05-22T21:51:29.584Z,100938.19
2023-05-22T21:54:15.853Z,100936.59
2023-05-22T21:57:03.149Z,100942.88
2023-05-22T21:59:50.728Z,100945.91
2023-05-22T22:02:36.899Z,100937.63
2023-05-22T22:05:24.354Z,100943.44
2023-05-22T22:08:10.426Z,100944.34
2023-05-22T22:10:58.297Z,100928.28
2023-05-22T22:13:45.958Z,100936.94
2023-05-22T22:16:35.389Z,100928.44
2023-05-22T22:19:22.360Z,100938.25
2023-05-22T22:22:08.945Z,100931.16
2023-05-22T22:24:55.093Z,100937.22
2023-05-22T22:27:41.088Z,100934.63
2023-05-22T22:30:28.500Z,100930.81
2023-05-22T22:33:14.586Z,100938.03
2023-05-22T22:36:00.498Z,100930.25
2023-05-22T22:38:46.409Z,100926.81
2023-05-22T22:41:32.293Z,100916.78
2023-05-22T22:44:18.368Z,100925.28
2023-05-22T22:47:07.645Z,100926.81
2023-05-22T22:49:56.997Z,100918.19
2023-05-22T22:52:46.080Z,100912.47
2023-05-22T22:55:32.565Z,100907.06
2023-05-22T22:58:19.585Z,100906.22
2023-05-22T23:01:05.933Z,100908.28
2023-05-22T23:03:53.639Z,100907.53
2023-05-22T23:06:41.681Z,100912.66
2023-05-22T23:09:27.667Z,100904.94
2023-05-22T23:12:13.598Z,100913.47
2023-05-22T23:14:59.713Z,100918.09
2023-05-22T23:17:45.740Z,100917.03
2023-05-22T23:20:33.157Z,100920.44
2023-05-22T23:23:19.621Z,100920.75
2023-05-22T23:26:06.108Z,100912.94
2023-05-22T23:28:52.281Z,100913.19
2023-05-22T23:31:40.190Z,100912.16
2023-05-22T23:34:26.478Z,100904.91
2023-05-22T23:37:13.969Z,100900.31
2023-05-22T23:40:00.006Z,100892.66
2023-05-22T23:42:46.700Z,100903.03
2023-05-22T23:45:32.977Z,100901.16
2023-05-22T23:48:18.882Z,100904.50
2023-05-22T23:51:05.169Z,100886.94
2023-05-22T23:53:52.309Z,100896.16
2023-05-22T23:56:38.596Z,100890.72
2023-05-22T23:59:24.409Z,100892.13
